Terminal Aerodrome Forecast
Issued by NWS Wilmington, NC

Home | Current Version | Previous Version | Text Only | Print | Product List | Glossary On
Versions: 1 2 3 4 5 6 7 8 9 10 11 12 13 14 15 16 17 18
000
FTUS42 KILM 191100
TAFMYR
TAF
KMYR 191120Z 1912/2012 05008KT P6SM SCT025
     FM191500 08013G20KT P6SM VCSH SCT030 BKN060
     FM200000 07010KT P6SM SCT030=

USA.gov is the U.S. government's official web portal to all federal, state and local government web resources and services.